sensor_id;sensor_type;location;lat;lon;timestamp;P1;P2;P0
64699;PMS5003;53804;44.742;19.698;2022-08-19T00:00:09;29.50;28.75;18.50
64699;PMS5003;53804;44.742;19.698;2022-08-19T00:00:34;31.80;25.20;18.20
64699;PMS5003;53804;44.742;19.698;2022-08-19T00:00:55;31.00;27.40;20.00
64699;PMS5003;53804;44.742;19.698;2022-08-19T00:01:16;35.00;30.20;20.20
64699;PMS5003;53804;44.742;19.698;2022-08-19T00:01:38;34.20;30.40;20.00
64699;PMS5003;53804;44.742;19.698;2022-08-19T00:01:59;33.00;26.00;20.00
64699;PMS5003;53804;44.742;19.698;2022-08-19T00:02:21;31.00;27.40;20.00
64699;PMS5003;53804;44.742;19.698;2022-08-19T00:02:43;35.75;30.25;19.00
64699;PMS5003;53804;44.742;19.698;2022-08-19T00:03:06;27.80;26.40;19.00
64699;PMS5003;53804;44.742;19.698;2022-08-19T00:03:27;28.00;27.00;19.40
64699;PMS5003;53804;44.742;19.698;2022-08-19T00:03:48;27.00;26.00;18.60
64699;PMS5003;53804;44.742;19.698;2022-08-19T00:04:10;31.60;27.00;20.00
64699;PMS5003;53804;44.742;19.698;2022-08-19T00:04:32;31.25;27.25;19.00
64699;PMS5003;53804;44.742;19.698;2022-08-19T00:04:56;31.50;27.50;20.00
64699;PMS5003;53804;44.742;19.698;2022-08-19T00:05:17;38.60;29.60;19.00
64699;PMS5003;53804;44.742;19.698;2022-08-19T00:05:39;33.40;27.40;18.40
64699;PMS5003;53804;44.742;19.698;2022-08-19T00:06:02;36.50;31.50;19.50
64699;PMS5003;53804;44.742;19.698;2022-08-19T00:06:23;32.00;29.75;18.00
64699;PMS5003;53804;44.742;19.698;2022-08-19T00:06:45;35.20;29.00;20.00
64699;PMS5003;53804;44.742;19.698;2022-08-19T00:07:06;34.00;28.00;20.00
64699;PMS5003;53804;44.742;19.698;2022-08-19T00:07:27;27.60;27.60;17.40
64699;PMS5003;53804;44.742;19.698;2022-08-19T00:07:48;28.50;27.00;19.50
64699;PMS5003;53804;44.742;19.698;2022-08-19T00:08:09;36.50;32.00;19.00
64699;PMS5003;53804;44.742;19.698;2022-08-19T00:08:30;31.00;24.20;17.80
64699;PMS5003;53804;44.742;19.698;2022-08-19T00:08:52;27.40;25.20;19.00
64699;PMS5003;53804;44.742;19.698;2022-08-19T00:09:14;37.25;32.25;20.00
64699;PMS5003;53804;44.742;19.698;2022-08-19T00:09:36;29.40;26.40;18.00
64699;PMS5003;53804;44.742;19.698;2022-08-19T00:09:57;32.00;29.40;18.40
64699;PMS5003;53804;44.742;19.698;2022-08-19T00:10:18;40.00;31.00;20.00
64699;PMS5003;53804;44.742;19.698;2022-08-19T00:10:40;38.25;32.75;20.50
64699;PMS5003;53804;44.742;19.698;2022-08-19T00:11:01;29.00;28.75;19.25
64699;PMS5003;53804;44.742;19.698;2022-08-19T00:11:22;34.50;30.00;18.75
64699;PMS5003;53804;44.742;19.698;2022-08-19T00:11:44;33.40;29.00;19.00
64699;PMS5003;53804;44.742;19.698;2022-08-19T00:12:05;31.50;27.00;19.00
64699;PMS5003;53804;44.742;19.698;2022-08-19T00:12:27;32.80;27.40;20.00
64699;PMS5003;53804;44.742;19.698;2022-08-19T00:12:48;34.40;31.40;20.00
64699;PMS5003;53804;44.742;19.698;2022-08-19T00:13:09;35.50;30.50;19.00
64699;PMS5003;53804;44.742;19.698;2022-08-19T00:13:30;33.00;29.40;20.00
64699;PMS5003;53804;44.742;19.698;2022-08-19T00:13:52;31.00;27.20;19.60
64699;PMS5003;53804;44.742;19.698;2022-08-19T00:14:14;32.00;28.00;20.00
64699;PMS5003;53804;44.742;19.698;2022-08-19T00:14:36;29.75;28.00;19.75
64699;PMS5003;53804;44.742;19.698;2022-08-19T00:14:58;36.20;30.00;19.20
64699;PMS5003;53804;44.742;19.698;2022-08-19T00:15:20;34.80;30.00;20.00
64699;PMS5003;53804;44.742;19.698;2022-08-19T00:15:41;26.75;26.75;18.50
64699;PMS5003;53804;44.742;19.698;2022-08-19T00:16:05;27.60;27.60;20.00
64699;PMS5003;53804;44.742;19.698;2022-08-19T00:16:26;38.00;29.80;18.60
64699;PMS5003;53804;44.742;19.698;2022-08-19T00:16:48;30.80;29.20;19.00
64699;PMS5003;53804;44.742;19.698;2022-08-19T00:17:11;31.80;29.20;20.60
64699;PMS5003;53804;44.742;19.698;2022-08-19T00:17:32;27.00;23.00;17.75
64699;PMS5003;53804;44.742;19.698;2022-08-19T00:17:53;33.60;29.80;18.20
64699;PMS5003;53804;44.742;19.698;2022-08-19T00:18:14;34.80;29.00;17.20
64699;PMS5003;53804;44.742;19.698;2022-08-19T00:18:35;33.20;27.40;19.40
64699;PMS5003;53804;44.742;19.698;2022-08-19T00:18:56;30.80;25.00;18.20
64699;PMS5003;53804;44.742;19.698;2022-08-19T00:19:18;36.75;33.00;22.00
64699;PMS5003;53804;44.742;19.698;2022-08-19T00:19:39;33.00;31.00;19.40
64699;PMS5003;53804;44.742;19.698;2022-08-19T00:20:00;31.75;29.25;18.00
64699;PMS5003;53804;44.742;19.698;2022-08-19T00:20:21;33.50;30.00;20.00
64699;PMS5003;53804;44.742;19.698;2022-08-19T00:20:42;29.80;27.40;20.00
64699;PMS5003;53804;44.742;19.698;2022-08-19T00:21:04;33.60;29.00;17.40
64699;PMS5003;53804;44.742;19.698;2022-08-19T00:21:27;31.00;27.75;19.75
64699;PMS5003;53804;44.742;19.698;2022-08-19T00:21:48;28.00;23.80;17.80
64699;PMS5003;53804;44.742;19.698;2022-08-19T00:22:09;33.00;29.50;19.25
64699;PMS5003;53804;44.742;19.698;2022-08-19T00:22:30;32.00;29.40;20.00
64699;PMS5003;53804;44.742;19.698;2022-08-19T00:22:53;34.00;30.00;19.00
64699;PMS5003;53804;44.742;19.698;2022-08-19T00:23:14;30.00;27.50;19.00
64699;PMS5003;53804;44.742;19.698;2022-08-19T00:23:36;31.40;28.00;19.40
64699;PMS5003;53804;44.742;19.698;2022-08-19T00:23:57;28.50;25.50;15.50
64699;PMS5003;53804;44.742;19.698;2022-08-19T00:24:18;27.00;23.80;18.20
64699;PMS5003;53804;44.742;19.698;2022-08-19T00:24:39;33.75;27.00;17.25
64699;PMS5003;53804;44.742;19.698;2022-08-19T00:25:04;33.00;31.00;19.40
64699;PMS5003;53804;44.742;19.698;2022-08-19T00:25:25;33.00;29.50;18.75
64699;PMS5003;53804;44.742;19.698;2022-08-19T00:25:46;29.20;28.40;17.40
64699;PMS5003;53804;44.742;19.698;2022-08-19T00:26:07;29.40;25.20;19.20
64699;PMS5003;53804;44.742;19.698;2022-08-19T00:26:29;33.60;31.00;19.00
64699;PMS5003;53804;44.742;19.698;2022-08-19T00:26:50;33.60;30.60;19.00
64699;PMS5003;53804;44.742;19.698;2022-08-19T00:27:11;28.60;27.00;20.00
64699;PMS5003;53804;44.742;19.698;2022-08-19T00:27:32;27.00;25.00;20.00
64699;PMS5003;53804;44.742;19.698;2022-08-19T00:27:54;25.00;25.00;19.00
64699;PMS5003;53804;44.742;19.698;2022-08-19T00:28:15;30.00;28.80;20.00
64699;PMS5003;53804;44.742;19.698;2022-08-19T00:28:36;31.00;26.25;20.00
64699;PMS5003;53804;44.742;19.698;2022-08-19T00:28:57;29.50;25.75;19.75
64699;PMS5003;53804;44.742;19.698;2022-08-19T00:29:20;32.00;26.00;19.00
64699;PMS5003;53804;44.742;19.698;2022-08-19T00:29:41;35.00;27.80;20.00
64699;PMS5003;53804;44.742;19.698;2022-08-19T00:30:03;38.20;31.80;20.00
64699;PMS5003;53804;44.742;19.698;2022-08-19T00:30:25;33.00;29.40;19.00
64699;PMS5003;53804;44.742;19.698;2022-08-19T00:30:47;36.60;31.00;21.00
64699;PMS5003;53804;44.742;19.698;2022-08-19T00:31:09;31.00;29.60;18.60
64699;PMS5003;53804;44.742;19.698;2022-08-19T00:31:30;33.40;30.00;20.00
64699;PMS5003;53804;44.742;19.698;2022-08-19T00:31:51;30.20;28.60;18.80
64699;PMS5003;53804;44.742;19.698;2022-08-19T00:32:14;28.50;26.50;19.50
64699;PMS5003;53804;44.742;19.698;2022-08-19T00:32:35;27.00;26.00;19.00
64699;PMS5003;53804;44.742;19.698;2022-08-19T00:32:57;33.75;30.00;19.00
64699;PMS5003;53804;44.742;19.698;2022-08-19T00:33:18;33.20;30.00;19.00
64699;PMS5003;53804;44.742;19.698;2022-08-19T00:33:40;33.50;27.50;18.00
64699;PMS5003;53804;44.742;19.698;2022-08-19T00:34:01;36.40;29.40;21.00
64699;PMS5003;53804;44.742;19.698;2022-08-19T00:34:22;28.00;27.00;19.25
64699;PMS5003;53804;44.742;19.698;2022-08-19T00:34:44;32.25;28.25;17.75
64699;PMS5003;53804;44.742;19.698;2022-08-19T00:35:06;30.00;27.60;20.00
64699;PMS5003;53804;44.742;19.698;2022-08-19T00:35:27;29.50;25.00;20.00
64699;PMS5003;53804;44.742;19.698;2022-08-19T00:35:48;29.00;28.00;21.00
64699;PMS5003;53804;44.742;19.698;2022-08-19T00:36:09;31.75;29.25;20.00
64699;PMS5003;53804;44.742;19.698;2022-08-19T00:36:31;26.00;25.40;18.40
64699;PMS5003;53804;44.742;19.698;2022-08-19T00:36:53;33.75;31.25;19.75
64699;PMS5003;53804;44.742;19.698;2022-08-19T00:37:14;30.60;27.60;18.80
64699;PMS5003;53804;44.742;19.698;2022-08-19T00:37:35;33.75;29.50;19.50
64699;PMS5003;53804;44.742;19.698;2022-08-19T00:37:57;27.80;26.80;19.00
64699;PMS5003;53804;44.742;19.698;2022-08-19T00:38:18;27.50;23.50;18.25
64699;PMS5003;53804;44.742;19.698;2022-08-19T00:38:42;31.80;29.00;18.40
64699;PMS5003;53804;44.742;19.698;2022-08-19T00:39:04;33.00;30.60;19.60
64699;PMS5003;53804;44.742;19.698;2022-08-19T00:39:25;32.40;29.40;20.00
64699;PMS5003;53804;44.742;19.698;2022-08-19T00:39:47;28.25;27.00;20.00
64699;PMS5003;53804;44.742;19.698;2022-08-19T00:40:08;28.75;26.75;20.00
64699;PMS5003;53804;44.742;19.698;2022-08-19T00:40:29;24.00;23.75;18.75
64699;PMS5003;53804;44.742;19.698;2022-08-19T00:40:50;30.00;26.40;18.80
64699;PMS5003;53804;44.742;19.698;2022-08-19T00:41:15;24.40;24.40;19.60
64699;PMS5003;53804;44.742;19.698;2022-08-19T00:41:38;28.60;28.00;18.00
64699;PMS5003;53804;44.742;19.698;2022-08-19T00:41:59;34.75;29.25;20.00
64699;PMS5003;53804;44.742;19.698;2022-08-19T00:42:20;35.75;31.00;19.75
64699;PMS5003;53804;44.742;19.698;2022-08-19T00:42:42;34.00;30.00;20.60
64699;PMS5003;53804;44.742;19.698;2022-08-19T00:43:08;28.75;26.25;19.25
64699;PMS5003;53804;44.742;19.698;2022-08-19T00:43:30;32.00;29.00;20.40
64699;PMS5003;53804;44.742;19.698;2022-08-19T00:43:58;31.00;29.00;20.00
64699;PMS5003;53804;44.742;19.698;2022-08-19T00:44:26;28.00;27.00;19.40
64699;PMS5003;53804;44.742;19.698;2022-08-19T00:44:48;35.75;29.25;20.25
64699;PMS5003;53804;44.742;19.698;2022-08-19T00:45:12;32.25;30.00;22.00
64699;PMS5003;53804;44.742;19.698;2022-08-19T00:45:34;32.50;29.50;18.50
64699;PMS5003;53804;44.742;19.698;2022-08-19T00:45:56;35.75;31.50;20.25
64699;PMS5003;53804;44.742;19.698;2022-08-19T00:46:17;32.00;29.00;20.00
64699;PMS5003;53804;44.742;19.698;2022-08-19T00:46:39;34.00;29.00;20.75
64699;PMS5003;53804;44.742;19.698;2022-08-19T00:47:01;35.00;31.50;20.00
64699;PMS5003;53804;44.742;19.698;2022-08-19T00:47:23;33.00;29.25;20.00
64699;PMS5003;53804;44.742;19.698;2022-08-19T00:47:44;25.60;24.20;17.40
64699;PMS5003;53804;44.742;19.698;2022-08-19T00:48:05;28.25;26.00;18.75
64699;PMS5003;53804;44.742;19.698;2022-08-19T00:48:26;28.80;26.20;19.20
64699;PMS5003;53804;44.742;19.698;2022-08-19T00:48:47;33.20;30.80;19.20
64699;PMS5003;53804;44.742;19.698;2022-08-19T00:49:12;27.75;26.00;19.00
64699;PMS5003;53804;44.742;19.698;2022-08-19T00:49:41;30.60;28.20;19.40
64699;PMS5003;53804;44.742;19.698;2022-08-19T00:50:05;31.40;27.40;21.00
64699;PMS5003;53804;44.742;19.698;2022-08-19T00:50:31;25.00;24.00;18.00
64699;PMS5003;53804;44.742;19.698;2022-08-19T00:50:53;38.25;31.75;20.00
64699;PMS5003;53804;44.742;19.698;2022-08-19T00:51:15;33.00;29.00;18.40
64699;PMS5003;53804;44.742;19.698;2022-08-19T00:51:36;31.80;30.00;21.00
64699;PMS5003;53804;44.742;19.698;2022-08-19T00:52:08;39.25;31.25;21.50
64699;PMS5003;53804;44.742;19.698;2022-08-19T00:52:32;36.50;30.50;20.00
64699;PMS5003;53804;44.742;19.698;2022-08-19T00:52:53;31.20;26.20;17.60
64699;PMS5003;53804;44.742;19.698;2022-08-19T00:53:16;35.40;30.40;19.00
64699;PMS5003;53804;44.742;19.698;2022-08-19T00:53:39;34.80;29.80;19.20
64699;PMS5003;53804;44.742;19.698;2022-08-19T00:54:00;34.75;31.50;21.00
64699;PMS5003;53804;44.742;19.698;2022-08-19T00:54:22;33.60;29.60;20.00
64699;PMS5003;53804;44.742;19.698;2022-08-19T00:54:43;28.00;25.00;20.00
64699;PMS5003;53804;44.742;19.698;2022-08-19T00:55:07;39.40;33.60;22.00
64699;PMS5003;53804;44.742;19.698;2022-08-19T00:55:32;34.40;31.20;19.40
64699;PMS5003;53804;44.742;19.698;2022-08-19T00:55:55;35.80;31.20;21.80
64699;PMS5003;53804;44.742;19.698;2022-08-19T00:56:16;35.60;31.60;20.60
64699;PMS5003;53804;44.742;19.698;2022-08-19T00:56:38;36.60;30.00;21.00
64699;PMS5003;53804;44.742;19.698;2022-08-19T00:57:00;33.50;30.00;22.00
64699;PMS5003;53804;44.742;19.698;2022-08-19T00:57:29;32.60;29.60;21.60
64699;PMS5003;53804;44.742;19.698;2022-08-19T00:58:00;32.00;30.00;22.00
64699;PMS5003;53804;44.742;19.698;2022-08-19T00:58:24;38.00;33.00;21.25
64699;PMS5003;53804;44.742;19.698;2022-08-19T00:58:45;29.60;28.00;20.00
64699;PMS5003;53804;44.742;19.698;2022-08-19T00:59:07;32.20;28.20;20.00
64699;PMS5003;53804;44.742;19.698;2022-08-19T00:59:28;36.75;30.00;21.75
64699;PMS5003;53804;44.742;19.698;2022-08-19T00:59:51;31.50;30.00;21.50
64699;PMS5003;53804;44.742;19.698;2022-08-19T01:00:15;32.40;28.00;20.00
64699;PMS5003;53804;44.742;19.698;2022-08-19T01:00:36;28.60;28.40;21.40
64699;PMS5003;53804;44.742;19.698;2022-08-19T01:00:57;26.00;26.00;20.00
64699;PMS5003;53804;44.742;19.698;2022-08-19T01:01:18;27.40;26.00;19.00
64699;PMS5003;53804;44.742;19.698;2022-08-19T01:01:40;31.40;27.40;18.40
64699;PMS5003;53804;44.742;19.698;2022-08-19T01:02:02;35.40;32.00;22.40
64699;PMS5003;53804;44.742;19.698;2022-08-19T01:02:24;38.50;32.50;21.00
64699;PMS5003;53804;44.742;19.698;2022-08-19T01:02:46;38.80;32.40;22.00
64699;PMS5003;53804;44.742;19.698;2022-08-19T01:03:09;33.00;30.00;21.60
64699;PMS5003;53804;44.742;19.698;2022-08-19T01:03:30;30.00;30.00;21.25
64699;PMS5003;53804;44.742;19.698;2022-08-19T01:03:52;31.80;29.80;20.80
64699;PMS5003;53804;44.742;19.698;2022-08-19T01:04:13;33.00;30.00;22.00
64699;PMS5003;53804;44.742;19.698;2022-08-19T01:04:34;32.00;29.00;21.00
64699;PMS5003;53804;44.742;19.698;2022-08-19T01:04:55;32.00;30.40;22.00
64699;PMS5003;53804;44.742;19.698;2022-08-19T01:05:17;31.00;30.00;20.00
64699;PMS5003;53804;44.742;19.698;2022-08-19T01:05:40;30.00;28.00;20.00
64699;PMS5003;53804;44.742;19.698;2022-08-19T01:06:02;37.00;29.60;20.00
64699;PMS5003;53804;44.742;19.698;2022-08-19T01:06:23;36.50;31.50;20.50
64699;PMS5003;53804;44.742;19.698;2022-08-19T01:06:44;30.60;29.60;20.40
64699;PMS5003;53804;44.742;19.698;2022-08-19T01:07:05;30.00;29.00;20.00
64699;PMS5003;53804;44.742;19.698;2022-08-19T01:07:26;37.50;31.25;20.75
64699;PMS5003;53804;44.742;19.698;2022-08-19T01:07:48;33.40;30.20;20.00
64699;PMS5003;53804;44.742;19.698;2022-08-19T01:08:10;37.20;33.00;21.80
64699;PMS5003;53804;44.742;19.698;2022-08-19T01:08:33;35.60;30.00;21.00
64699;PMS5003;53804;44.742;19.698;2022-08-19T01:08:54;35.75;32.00;21.00
64699;PMS5003;53804;44.742;19.698;2022-08-19T01:09:15;38.00;30.50;21.00
64699;PMS5003;53804;44.742;19.698;2022-08-19T01:09:36;34.25;29.00;20.25
64699;PMS5003;53804;44.742;19.698;2022-08-19T01:09:57;33.40;28.20;21.20
64699;PMS5003;53804;44.742;19.698;2022-08-19T01:10:19;30.75;28.00;19.00
64699;PMS5003;53804;44.742;19.698;2022-08-19T01:10:54;37.40;30.00;20.20
64699;PMS5003;53804;44.742;19.698;2022-08-19T01:11:15;29.00;25.40;19.80
64699;PMS5003;53804;44.742;19.698;2022-08-19T01:11:38;36.00;31.00;20.00
64699;PMS5003;53804;44.742;19.698;2022-08-19T01:12:01;35.25;32.75;21.75
64699;PMS5003;53804;44.742;19.698;2022-08-19T01:12:22;26.00;25.40;19.40
64699;PMS5003;53804;44.742;19.698;2022-08-19T01:12:44;31.60;29.60;20.00
64699;PMS5003;53804;44.742;19.698;2022-08-19T01:13:06;30.20;28.40;19.00
64699;PMS5003;53804;44.742;19.698;2022-08-19T01:13:28;29.25;27.75;21.00
64699;PMS5003;53804;44.742;19.698;2022-08-19T01:13:50;30.20;28.60;21.40
64699;PMS5003;53804;44.742;19.698;2022-08-19T01:14:12;30.00;28.00;20.00
64699;PMS5003;53804;44.742;19.698;2022-08-19T01:14:34;28.25;27.25;19.50
64699;PMS5003;53804;44.742;19.698;2022-08-19T01:14:55;32.00;29.00;19.80
64699;PMS5003;53804;44.742;19.698;2022-08-19T01:15:19;35.25;31.50;20.25
64699;PMS5003;53804;44.742;19.698;2022-08-19T01:15:43;30.40;26.40;19.40
64699;PMS5003;53804;44.742;19.698;2022-08-19T01:16:06;36.00;32.20;22.00
64699;PMS5003;53804;44.742;19.698;2022-08-19T01:16:28;31.20;27.80;19.20
64699;PMS5003;53804;44.742;19.698;2022-08-19T01:16:49;27.00;26.00;19.20
64699;PMS5003;53804;44.742;19.698;2022-08-19T01:17:14;31.80;29.60;20.60
64699;PMS5003;53804;44.742;19.698;2022-08-19T01:17:36;42.00;34.20;21.40
64699;PMS5003;53804;44.742;19.698;2022-08-19T01:17:59;32.00;28.00;19.67
64699;PMS5003;53804;44.742;19.698;2022-08-19T01:18:22;34.00;30.75;20.25
64699;PMS5003;53804;44.742;19.698;2022-08-19T01:18:44;37.20;32.00;20.00
64699;PMS5003;53804;44.742;19.698;2022-08-19T01:19:15;32.00;30.00;20.00
64699;PMS5003;53804;44.742;19.698;2022-08-19T01:19:39;34.00;29.80;21.20
64699;PMS5003;53804;44.742;19.698;2022-08-19T01:20:01;33.80;30.80;21.20
64699;PMS5003;53804;44.742;19.698;2022-08-19T01:20:22;35.20;31.40;20.80
64699;PMS5003;53804;44.742;19.698;2022-08-19T01:20:44;35.25;29.50;19.00
64699;PMS5003;53804;44.742;19.698;2022-08-19T01:21:08;35.50;31.75;20.75
64699;PMS5003;53804;44.742;19.698;2022-08-19T01:21:44;37.60;31.20;20.00
64699;PMS5003;53804;44.742;19.698;2022-08-19T01:22:12;33.00;31.50;21.00
64699;PMS5003;53804;44.742;19.698;2022-08-19T01:22:41;30.50;29.00;19.25
64699;PMS5003;53804;44.742;19.698;2022-08-19T01:23:03;29.50;26.50;20.50
64699;PMS5003;53804;44.742;19.698;2022-08-19T01:23:24;31.00;30.00;20.25
64699;PMS5003;53804;44.742;19.698;2022-08-19T01:24:02;36.60;29.60;21.00
64699;PMS5003;53804;44.742;19.698;2022-08-19T01:24:23;32.00;27.00;20.00
64699;PMS5003;53804;44.742;19.698;2022-08-19T01:24:44;30.00;28.00;21.00
64699;PMS5003;53804;44.742;19.698;2022-08-19T01:25:06;34.60;32.00;21.00
64699;PMS5003;53804;44.742;19.698;2022-08-19T01:25:35;27.60;26.00;19.00
64699;PMS5003;53804;44.742;19.698;2022-08-19T01:25:56;38.00;31.80;22.00
64699;PMS5003;53804;44.742;19.698;2022-08-19T01:26:19;34.00;29.40;21.80
64699;PMS5003;53804;44.742;19.698;2022-08-19T01:26:41;37.00;31.75;20.25
64699;PMS5003;53804;44.742;19.698;2022-08-19T01:27:04;31.40;29.00;20.00
64699;PMS5003;53804;44.742;19.698;2022-08-19T01:27:25;35.40;30.00;21.40
64699;PMS5003;53804;44.742;19.698;2022-08-19T01:27:47;31.00;27.00;20.00
64699;PMS5003;53804;44.742;19.698;2022-08-19T01:28:14;31.80;29.40;20.20
64699;PMS5003;53804;44.742;19.698;2022-08-19T01:28:35;31.00;28.75;20.50
64699;PMS5003;53804;44.742;19.698;2022-08-19T01:28:57;35.20;32.20;21.20
64699;PMS5003;53804;44.742;19.698;2022-08-19T01:29:18;31.20;30.20;22.20
64699;PMS5003;53804;44.742;19.698;2022-08-19T01:29:40;35.00;29.75;22.00
64699;PMS5003;53804;44.742;19.698;2022-08-19T01:30:02;35.60;30.40;22.00
64699;PMS5003;53804;44.742;19.698;2022-08-19T01:30:28;34.75;31.75;21.75
64699;PMS5003;53804;44.742;19.698;2022-08-19T01:30:50;31.50;30.00;20.00
64699;PMS5003;53804;44.742;19.698;2022-08-19T01:31:22;29.00;28.00;19.40
64699;PMS5003;53804;44.742;19.698;2022-08-19T01:31:43;32.60;28.00;21.00
64699;PMS5003;53804;44.742;19.698;2022-08-19T01:32:04;30.00;29.00;22.00
64699;PMS5003;53804;44.742;19.698;2022-08-19T01:32:26;28.60;25.80;19.80
64699;PMS5003;53804;44.742;19.698;2022-08-19T01:32:47;29.25;27.50;20.75
64699;PMS5003;53804;44.742;19.698;2022-08-19T01:33:08;35.00;29.40;21.40
64699;PMS5003;53804;44.742;19.698;2022-08-19T01:33:30;31.80;29.20;21.80
64699;PMS5003;53804;44.742;19.698;2022-08-19T01:33:51;31.60;30.00;22.00
64699;PMS5003;53804;44.742;19.698;2022-08-19T01:34:13;38.20;33.00;21.40
64699;PMS5003;53804;44.742;19.698;2022-08-19T01:34:34;39.50;33.00;21.00
64699;PMS5003;53804;44.742;19.698;2022-08-19T01:34:55;32.00;29.00;20.25
64699;PMS5003;53804;44.742;19.698;2022-08-19T01:35:16;31.50;27.50;19.50
64699;PMS5003;53804;44.742;19.698;2022-08-19T01:35:37;31.40;27.20;19.80
64699;PMS5003;53804;44.742;19.698;2022-08-19T01:36:06;33.60;28.40;20.60
64699;PMS5003;53804;44.742;19.698;2022-08-19T01:36:49;36.00;30.80;21.00
64699;PMS5003;53804;44.742;19.698;2022-08-19T01:37:10;37.40;32.00;22.00
64699;PMS5003;53804;44.742;19.698;2022-08-19T01:37:41;37.20;33.00;21.80
64699;PMS5003;53804;44.742;19.698;2022-08-19T01:38:04;35.40;32.00;23.00
64699;PMS5003;53804;44.742;19.698;2022-08-19T01:38:28;32.00;30.00;22.00
64699;PMS5003;53804;44.742;19.698;2022-08-19T01:38:51;37.50;32.00;22.00
64699;PMS5003;53804;44.742;19.698;2022-08-19T01:39:14;30.80;28.80;21.40
64699;PMS5003;53804;44.742;19.698;2022-08-19T01:39:35;32.80;29.60;21.60
64699;PMS5003;53804;44.742;19.698;2022-08-19T01:39:56;31.75;29.75;21.50
64699;PMS5003;53804;44.742;19.698;2022-08-19T01:40:18;35.75;29.75;21.00
64699;PMS5003;53804;44.742;19.698;2022-08-19T01:40:40;32.00;27.25;21.25
64699;PMS5003;53804;44.742;19.698;2022-08-19T01:41:02;37.00;32.40;21.60
64699;PMS5003;53804;44.742;19.698;2022-08-19T01:41:25;29.40;29.40;19.80
64699;PMS5003;53804;44.742;19.698;2022-08-19T01:41:47;35.00;31.00;22.00
64699;PMS5003;53804;44.742;19.698;2022-08-19T01:42:08;40.60;33.00;21.20
64699;PMS5003;53804;44.742;19.698;2022-08-19T01:42:32;32.20;30.20;21.60
64699;PMS5003;53804;44.742;19.698;2022-08-19T01:42:55;36.75;32.00;21.50
64699;PMS5003;53804;44.742;19.698;2022-08-19T01:43:16;34.00;31.40;21.40
64699;PMS5003;53804;44.742;19.698;2022-08-19T01:43:39;38.20;33.20;21.60
64699;PMS5003;53804;44.742;19.698;2022-08-19T01:44:00;30.00;27.00;21.25
64699;PMS5003;53804;44.742;19.698;2022-08-19T01:44:23;32.00;29.50;21.00
64699;PMS5003;53804;44.742;19.698;2022-08-19T01:44:44;37.40;31.40;21.40
64699;PMS5003;53804;44.742;19.698;2022-08-19T01:45:05;37.75;32.00;22.00
64699;PMS5003;53804;44.742;19.698;2022-08-19T01:45:28;31.80;28.40;20.40
64699;PMS5003;53804;44.742;19.698;2022-08-19T01:45:49;38.50;31.00;22.00
64699;PMS5003;53804;44.742;19.698;2022-08-19T01:46:11;40.00;35.00;22.75
64699;PMS5003;53804;44.742;19.698;2022-08-19T01:46:32;36.60;33.00;22.00
64699;PMS5003;53804;44.742;19.698;2022-08-19T01:46:53;36.60;31.60;22.00
64699;PMS5003;53804;44.742;19.698;2022-08-19T01:47:15;32.50;29.50;21.50
64699;PMS5003;53804;44.742;19.698;2022-08-19T01:47:36;39.00;35.00;22.60
64699;PMS5003;53804;44.742;19.698;2022-08-19T01:47:57;36.25;31.50;21.50
64699;PMS5003;53804;44.742;19.698;2022-08-19T01:48:19;35.00;30.50;21.50
64699;PMS5003;53804;44.742;19.698;2022-08-19T01:48:40;33.00;30.00;22.00
64699;PMS5003;53804;44.742;19.698;2022-08-19T01:49:03;32.60;30.80;22.00
64699;PMS5003;53804;44.742;19.698;2022-08-19T01:49:24;38.75;33.00;22.00
64699;PMS5003;53804;44.742;19.698;2022-08-19T01:49:46;37.00;29.40;20.60
64699;PMS5003;53804;44.742;19.698;2022-08-19T01:50:08;39.00;32.50;22.50
64699;PMS5003;53804;44.742;19.698;2022-08-19T01:50:30;34.80;30.80;22.00
64699;PMS5003;53804;44.742;19.698;2022-08-19T01:50:51;34.60;32.00;22.00
64699;PMS5003;53804;44.742;19.698;2022-08-19T01:51:12;33.50;30.00;21.00
64699;PMS5003;53804;44.742;19.698;2022-08-19T01:51:34;37.60;33.00;23.00
64699;PMS5003;53804;44.742;19.698;2022-08-19T01:51:55;36.00;31.00;22.00
64699;PMS5003;53804;44.742;19.698;2022-08-19T01:52:16;42.50;33.00;23.00
64699;PMS5003;53804;44.742;19.698;2022-08-19T01:52:37;33.80;30.00;21.60
64699;PMS5003;53804;44.742;19.698;2022-08-19T01:52:59;33.20;31.00;21.60
64699;PMS5003;53804;44.742;19.698;2022-08-19T01:53:21;39.40;31.40;21.40
64699;PMS5003;53804;44.742;19.698;2022-08-19T01:53:42;36.75;31.75;23.00
64699;PMS5003;53804;44.742;19.698;2022-08-19T01:54:03;35.50;32.00;22.00
64699;PMS5003;53804;44.742;19.698;2022-08-19T01:54:24;47.00;37.50;24.00
64699;PMS5003;53804;44.742;19.698;2022-08-19T01:54:45;46.00;34.60;24.00
64699;PMS5003;53804;44.742;19.698;2022-08-19T01:55:08;42.50;33.00;23.00
64699;PMS5003;53804;44.742;19.698;2022-08-19T01:55:29;39.00;34.00;24.00
64699;PMS5003;53804;44.742;19.698;2022-08-19T01:55:50;39.50;34.50;22.50
64699;PMS5003;53804;44.742;19.698;2022-08-19T01:56:11;45.20;33.00;23.20
64699;PMS5003;53804;44.742;19.698;2022-08-19T01:56:32;43.00;35.00;23.00
64699;PMS5003;53804;44.742;19.698;2022-08-19T01:56:55;40.00;35.20;23.00
64699;PMS5003;53804;44.742;19.698;2022-08-19T01:57:18;48.00;36.50;24.25
64699;PMS5003;53804;44.742;19.698;2022-08-19T01:57:40;47.20;36.00;24.00
64699;PMS5003;53804;44.742;19.698;2022-08-19T01:58:03;47.00;38.00;24.00
64699;PMS5003;53804;44.742;19.698;2022-08-19T01:58:27;48.25;38.75;24.00
64699;PMS5003;53804;44.742;19.698;2022-08-19T01:58:58;45.75;37.25;23.75
64699;PMS5003;53804;44.742;19.698;2022-08-19T01:59:20;49.50;39.00;26.00
64699;PMS5003;53804;44.742;19.698;2022-08-19T01:59:43;44.75;38.00;24.25
64699;PMS5003;53804;44.742;19.698;2022-08-19T02:00:07;45.80;37.40;23.80
64699;PMS5003;53804;44.742;19.698;2022-08-19T02:00:29;47.00;36.00;24.00
64699;PMS5003;53804;44.742;19.698;2022-08-19T02:00:50;47.20;35.80;23.00
64699;PMS5003;53804;44.742;19.698;2022-08-19T02:01:14;46.80;36.80;24.20
64699;PMS5003;53804;44.742;19.698;2022-08-19T02:01:35;45.60;37.60;24.20
64699;PMS5003;53804;44.742;19.698;2022-08-19T02:01:56;46.00;37.40;25.80
64699;PMS5003;53804;44.742;19.698;2022-08-19T02:02:17;47.40;38.20;25.00
64699;PMS5003;53804;44.742;19.698;2022-08-19T02:02:38;46.20;37.00;23.40
64699;PMS5003;53804;44.742;19.698;2022-08-19T02:03:00;52.50;39.50;25.75
64699;PMS5003;53804;44.742;19.698;2022-08-19T02:03:21;53.80;40.80;25.00
64699;PMS5003;53804;44.742;19.698;2022-08-19T02:03:45;50.75;41.00;25.00